Time;durP1;ratioP1;P1;durP2;ratioP2;P2;SDS_P1;SDS_P2;PMS_P1;PMS_P2;Temp;Humidity;BMP_temperature;BMP_pressure;BME280_temperature;BME280_humidity;BME280_pressure;Samples;Min_cycle;Max_cycle;Signal;HPM_P1;HPM_P2
2021/04/24 00:00:31;;;;;;;12.57;7.22;;;5.10;99.90;;;;;;4994355;28;20113;-61
2021/04/24 00:02:57;;;;;;;14.32;7.15;;;5.10;99.90;;;;;;4989488;28;20040;-62
2021/04/24 00:05:28;;;;;;;17.45;7.65;;;5.10;99.90;;;;;;4992667;28;20407;-62
2021/04/24 00:07:57;;;;;;;18.90;7.20;;;5.20;99.90;;;;;;4986420;28;20030;-63
2021/04/24 00:10:25;;;;;;;24.77;7.68;;;5.30;99.90;;;;;;4990175;28;20033;-63
2021/04/24 00:12:50;;;;;;;22.92;8.20;;;5.30;99.90;;;;;;4983163;28;20026;-59
2021/04/24 00:15:17;;;;;;;12.70;7.55;;;5.30;99.90;;;;;;4993016;28;20084;-62
2021/04/24 00:17:42;;;;;;;14.60;7.80;;;5.20;99.90;;;;;;4998688;28;20027;-63
2021/04/24 00:20:12;;;;;;;17.90;6.88;;;5.20;99.90;;;;;;4995057;28;20422;-61
2021/04/24 00:22:37;;;;;;;11.25;6.50;;;5.10;99.90;;;;;;4988699;28;20132;-61
2021/04/24 00:25:05;;;;;;;13.60;7.32;;;5.10;99.90;;;;;;4984690;28;20423;-58
2021/04/24 00:27:30;;;;;;;17.95;7.90;;;5.00;99.90;;;;;;4985758;28;20034;-62
2021/04/24 00:29:56;;;;;;;18.75;7.70;;;4.90;99.90;;;;;;4989781;28;20388;-62
2021/04/24 00:32:21;;;;;;;25.58;7.25;;;4.80;99.90;;;;;;4988945;28;20030;-62
2021/04/24 00:34:48;;;;;;;26.80;7.80;;;4.70;99.90;;;;;;4987395;28;20452;-61
2021/04/24 00:37:13;;;;;;;17.15;7.47;;;4.60;99.90;;;;;;4993774;28;20033;-63
2021/04/24 00:39:39;;;;;;;17.40;8.65;;;4.50;99.90;;;;;;4992734;28;20396;-62
2021/04/24 00:42:05;;;;;;;16.50;7.50;;;4.40;99.90;;;;;;4994889;28;20377;-62
2021/04/24 00:44:31;;;;;;;15.50;7.30;;;4.30;99.90;;;;;;4989199;28;20099;-64
2021/04/24 00:46:57;;;;;;;15.30;8.15;;;4.20;99.90;;;;;;4991034;28;20496;-62
2021/04/24 00:49:22;;;;;;;16.65;7.97;;;4.20;99.90;;;;;;5000045;28;20395;-64
2021/04/24 00:51:48;;;;;;;19.30;8.02;;;4.10;99.90;;;;;;4987694;28;20026;-59
2021/04/24 00:54:14;;;;;;;16.90;7.57;;;4.20;99.90;;;;;;4992680;28;20484;-63
2021/04/24 00:56:40;;;;;;;15.13;7.75;;;4.20;99.90;;;;;;4998818;28;20109;-59
2021/04/24 00:59:06;;;;;;;12.98;6.95;;;4.20;99.90;;;;;;4985707;28;20555;-63
2021/04/24 01:01:31;;;;;;;20.63;8.48;;;4.20;99.90;;;;;;4989822;28;20047;-64
2021/04/24 01:03:57;;;;;;;21.70;8.63;;;4.10;99.90;;;;;;4998788;28;20040;-62
2021/04/24 01:06:23;;;;;;;23.77;8.18;;;4.10;99.90;;;;;;5001360;28;20022;-63
2021/04/24 01:08:49;;;;;;;19.83;7.63;;;4.10;99.90;;;;;;4987894;28;20034;-58
2021/04/24 01:11:14;;;;;;;16.73;8.02;;;4.00;99.90;;;;;;4984098;28;20026;-61
2021/04/24 01:13:40;;;;;;;13.77;8.18;;;3.90;99.90;;;;;;4988608;28;20033;-62
2021/04/24 01:16:06;;;;;;;16.00;8.40;;;3.90;99.90;;;;;;4996647;28;20030;-64
2021/04/24 01:18:31;;;;;;;15.00;8.10;;;3.90;99.90;;;;;;4996331;28;20037;-62
2021/04/24 01:20:58;;;;;;;17.63;8.65;;;3.90;99.90;;;;;;4996398;28;20435;-63
2021/04/24 01:23:24;;;;;;;19.25;7.40;;;3.90;99.90;;;;;;4988570;28;20038;-63
2021/04/24 01:25:50;;;;;;;21.50;8.73;;;3.90;99.90;;;;;;4991196;28;20562;-64
2021/04/24 01:28:16;;;;;;;15.55;7.20;;;3.90;99.90;;;;;;4991195;28;20031;-63
2021/04/24 01:30:44;;;;;;;15.35;7.28;;;3.90;99.90;;;;;;4993755;28;20443;-63
2021/04/24 01:33:12;;;;;;;16.90;8.10;;;3.90;99.90;;;;;;4997029;28;20026;-63
2021/04/24 01:35:39;;;;;;;18.17;7.90;;;3.90;99.90;;;;;;4989862;28;20081;-63
2021/04/24 01:38:06;;;;;;;15.27;7.32;;;3.90;99.90;;;;;;4984946;28;20026;-62
2021/04/24 01:40:32;;;;;;;14.45;7.40;;;4.00;99.90;;;;;;4992252;28;20039;-62
2021/04/24 01:42:58;;;;;;;13.82;7.07;;;4.10;99.90;;;;;;4993685;28;20487;-63
2021/04/24 01:45:25;;;;;;;16.30;7.70;;;4.20;99.90;;;;;;4996524;28;20054;-63
2021/04/24 01:47:51;;;;;;;16.45;6.63;;;4.30;99.90;;;;;;4993476;28;20034;-63
2021/04/24 01:50:24;;;;;;;17.98;7.45;;;4.30;99.90;;;;;;5001146;28;20033;-61
2021/04/24 01:52:52;;;;;;;13.05;6.93;;;4.40;99.90;;;;;;4993925;28;20049;-63
2021/04/24 01:55:28;;;;;;;14.98;7.25;;;4.40;99.90;;;;;;5004190;28;20153;-63
2021/04/24 01:57:55;;;;;;;16.33;6.45;;;4.40;99.90;;;;;;4995909;28;20034;-63
2021/04/24 02:00:29;;;;;;;20.20;7.57;;;4.40;99.90;;;;;;5005072;28;20026;-63
2021/04/24 02:02:57;;;;;;;;;;;4.40;99.90;;;;;;4994747;28;20030;-63
2021/04/24 02:05:23;;;;;;;14.85;6.50;;;4.40;99.90;;;;;;4991209;28;20418;-63
2021/04/24 02:07:55;;;;;;;17.10;7.15;;;4.40;99.90;;;;;;4991871;28;20415;-63
2021/04/24 02:10:22;;;;;;;15.90;6.90;;;4.40;99.90;;;;;;5000460;28;20030;-63
2021/04/24 02:12:47;;;;;;;14.90;6.78;;;4.40;99.90;;;;;;4990702;28;20382;-62
2021/04/24 02:15:13;;;;;;;13.63;6.90;;;4.30;99.90;;;;;;4991933;28;20049;-62
2021/04/24 02:17:39;;;;;;;16.20;6.80;;;4.30;99.90;;;;;;4990023;28;20027;-62
2021/04/24 02:20:05;;;;;;;12.18;6.25;;;4.30;99.90;;;;;;4991737;28;20033;-63
2021/04/24 02:22:31;;;;;;;13.50;6.68;;;4.30;99.90;;;;;;4992458;28;20037;-62
2021/04/24 02:24:58;;;;;;;13.82;7.20;;;4.30;99.90;;;;;;4998926;28;20022;-63
2021/04/24 02:27:25;;;;;;;15.75;7.63;;;4.20;99.90;;;;;;4998167;28;20037;-63
2021/04/24 02:29:51;;;;;;;16.58;7.30;;;4.20;99.90;;;;;;5002450;28;20026;-63
2021/04/24 02:32:19;;;;;;;12.35;6.05;;;4.10;99.90;;;;;;5004640;28;20022;-62
2021/04/24 02:34:46;;;;;;;15.18;6.88;;;4.10;99.90;;;;;;4995175;28;20041;-60
2021/04/24 02:37:14;;;;;;;15.48;7.47;;;4.00;99.90;;;;;;4992581;28;20121;-64
2021/04/24 02:39:41;;;;;;;14.25;6.95;;;3.90;99.90;;;;;;4992157;28;20035;-62
2021/04/24 02:42:11;;;;;;;13.52;6.63;;;3.90;99.90;;;;;;5005616;28;20048;-63
2021/04/24 02:44:37;;;;;;;17.60;7.15;;;3.90;99.90;;;;;;5003733;28;20033;-62
2021/04/24 02:47:03;;;;;;;15.05;7.13;;;3.90;99.90;;;;;;5003100;28;20416;-63
2021/04/24 02:49:29;;;;;;;14.98;6.78;;;3.90;99.90;;;;;;5003670;28;20442;-63
2021/04/24 02:51:56;;;;;;;17.05;6.57;;;3.90;99.90;;;;;;4995316;28;20137;-59
2021/04/24 02:54:24;;;;;;;16.15;7.20;;;3.90;99.90;;;;;;5001243;28;20040;-63
2021/04/24 02:56:49;;;;;;;13.10;5.75;;;3.90;99.90;;;;;;4992475;28;20030;-61
2021/04/24 02:59:16;;;;;;;19.27;6.78;;;3.90;99.90;;;;;;4992780;28;20104;-63
2021/04/24 03:01:42;;;;;;;16.08;6.35;;;3.90;99.90;;;;;;4991154;28;20206;-63
2021/04/24 03:04:08;;;;;;;19.23;6.43;;;3.90;99.90;;;;;;4999901;28;20048;-63
2021/04/24 03:06:34;;;;;;;18.63;7.95;;;3.90;99.90;;;;;;5002953;28;20026;-62
2021/04/24 03:09:00;;;;;;;17.05;6.53;;;3.80;99.90;;;;;;4999559;28;20026;-63
2021/04/24 03:11:26;;;;;;;18.60;6.40;;;3.80;99.90;;;;;;4995640;28;20026;-64
2021/04/24 03:13:52;;;;;;;14.65;6.70;;;3.80;99.90;;;;;;4999783;28;20075;-64
2021/04/24 03:16:17;;;;;;;12.48;6.32;;;3.80;99.90;;;;;;5004183;28;20037;-62
2021/04/24 03:18:43;;;;;;;16.98;6.10;;;3.80;99.90;;;;;;4995000;28;20031;-63
2021/04/24 03:21:08;;;;;;;15.35;6.22;;;3.80;99.90;;;;;;4997335;28;20018;-63
2021/04/24 03:23:34;;;;;;;18.42;7.10;;;3.90;99.90;;;;;;4995010;28;20113;-61
2021/04/24 03:26:00;;;;;;;16.73;5.95;;;3.90;99.90;;;;;;4999915;28;20038;-62
2021/04/24 03:28:25;;;;;;;14.40;5.78;;;3.90;99.90;;;;;;5003790;28;20450;-64
2021/04/24 03:30:51;;;;;;;15.95;7.35;;;3.90;99.90;;;;;;5002029;28;20029;-63
2021/04/24 03:33:16;;;;;;;14.63;6.65;;;3.80;99.90;;;;;;4995797;28;20032;-64
2021/04/24 03:35:42;;;;;;;14.27;6.65;;;3.80;99.90;;;;;;5002710;28;20394;-63
2021/04/24 03:38:08;;;;;;;18.60;6.95;;;3.70;99.90;;;;;;4992189;28;20045;-62
2021/04/24 03:40:34;;;;;;;13.30;6.18;;;3.70;99.90;;;;;;4991521;28;20041;-63
2021/04/24 03:42:59;;;;;;;17.05;7.70;;;3.60;99.90;;;;;;4994324;28;20038;-62
2021/04/24 03:45:25;;;;;;;17.65;6.60;;;3.50;99.90;;;;;;5003332;28;20394;-61
2021/04/24 03:47:53;;;;;;;12.23;6.22;;;3.50;99.90;;;;;;4995464;28;20502;-60
2021/04/24 03:50:21;;;;;;;16.10;6.60;;;3.50;99.90;;;;;;5001495;28;20137;-62
2021/04/24 03:52:47;;;;;;;12.70;6.72;;;3.50;99.90;;;;;;4997281;28;20049;-62
2021/04/24 03:55:14;;;;;;;15.57;6.80;;;3.50;99.90;;;;;;4999462;28;20056;-62
2021/04/24 03:57:43;;;;;;;12.43;6.55;;;3.50;99.90;;;;;;4994803;28;20022;-62
2021/04/24 04:00:09;;;;;;;21.67;7.68;;;3.50;99.90;;;;;;4993538;28;20057;-63
2021/04/24 04:02:45;;;;;;;19.13;6.45;;;3.50;99.90;;;;;;4988985;28;20443;-63
2021/04/24 04:05:12;;;;;;;13.43;7.13;;;3.50;99.90;;;;;;4988025;28;20030;-60
2021/04/24 04:07:37;;;;;;;18.75;6.60;;;3.50;99.90;;;;;;4989768;28;20460;-63
2021/04/24 04:10:03;;;;;;;19.02;7.05;;;3.50;99.90;;;;;;4990290;28;20061;-63
2021/04/24 04:12:29;;;;;;;15.63;6.72;;;3.50;99.90;;;;;;4990257;28;20102;-64
2021/04/24 04:14:54;;;;;;;18.83;8.40;;;3.50;99.90;;;;;;5000498;28;20101;-63
2021/04/24 04:17:20;;;;;;;16.48;6.28;;;3.40;99.90;;;;;;4989932;28;20042;-63
2021/04/24 04:19:46;;;;;;;19.92;6.72;;;3.40;99.90;;;;;;4998340;28;20033;-63
2021/04/24 04:22:11;;;;;;;14.45;7.18;;;3.40;99.90;;;;;;4998221;28;20579;-63
2021/04/24 04:24:37;;;;;;;16.98;7.90;;;3.40;99.90;;;;;;5003602;28;20029;-63
2021/04/24 04:27:02;;;;;;;20.63;7.18;;;3.50;99.90;;;;;;5000160;28;20080;-64
2021/04/24 04:29:28;;;;;;;16.67;6.50;;;3.50;99.90;;;;;;5000436;28;20046;-63
2021/04/24 04:31:54;;;;;;;17.88;7.53;;;3.50;99.90;;;;;;4991941;28;20039;-64
2021/04/24 04:34:19;;;;;;;15.65;6.40;;;3.50;99.90;;;;;;5000899;28;20046;-61
2021/04/24 04:36:45;;;;;;;14.43;6.45;;;3.50;99.90;;;;;;4993169;28;20084;-63
2021/04/24 04:39:10;;;;;;;18.15;6.65;;;3.50;99.90;;;;;;4989177;28;20058;-62
2021/04/24 04:41:36;;;;;;;18.20;7.07;;;3.50;99.90;;;;;;4992211;28;20038;-58
2021/04/24 04:44:01;;;;;;;16.63;7.22;;;3.50;99.90;;;;;;4989475;28;20173;-63
2021/04/24 04:46:27;;;;;;;18.42;7.03;;;3.60;99.90;;;;;;4993135;28;20121;-64
2021/04/24 04:48:52;;;;;;;16.63;6.40;;;3.70;99.90;;;;;;4991410;28;20030;-63
2021/04/24 04:51:18;;;;;;;12.48;6.03;;;3.80;99.90;;;;;;4997830;28;20522;-62
2021/04/24 04:53:44;;;;;;;21.75;7.68;;;3.90;99.90;;;;;;4989133;28;20034;-63
2021/04/24 04:56:09;;;;;;;17.15;7.85;;;3.90;99.90;;;;;;4989436;28;20045;-64
2021/04/24 04:58:35;;;;;;;20.98;6.70;;;4.10;99.90;;;;;;4992150;28;20033;-61
2021/04/24 05:01:02;;;;;;;17.45;7.70;;;4.10;99.90;;;;;;5001881;28;20034;-64
2021/04/24 05:03:27;;;;;;;16.15;6.45;;;4.30;99.90;;;;;;4993669;28;20408;-63
2021/04/24 05:05:53;;;;;;;17.25;6.82;;;4.50;99.90;;;;;;4994364;28;20037;-64
2021/04/24 05:08:18;;;;;;;25.08;7.82;;;4.70;99.90;;;;;;5002995;28;20042;-63
2021/04/24 05:10:44;;;;;;;17.83;7.03;;;4.90;99.90;;;;;;5000908;28;20018;-63
2021/04/24 05:13:10;;;;;;;15.70;7.65;;;5.10;99.90;;;;;;5003137;28;20050;-64
2021/04/24 05:15:35;;;;;;;12.95;6.97;;;5.40;99.90;;;;;;4998787;28;20033;-58
2021/04/24 05:18:01;;;;;;;12.73;6.78;;;5.60;99.90;;;;;;5000932;28;20018;-64
2021/04/24 05:20:26;;;;;;;18.35;6.50;;;6.00;99.90;;;;;;5003377;28;20041;-64
2021/04/24 05:22:52;;;;;;;21.30;6.75;;;6.10;99.90;;;;;;4999468;28;20038;-61
2021/04/24 05:25:18;;;;;;;15.95;7.53;;;6.50;99.90;;;;;;4995477;28;20065;-63
2021/04/24 05:27:46;;;;;;;17.35;7.32;;;7.00;99.90;;;;;;5001186;28;20029;-64
2021/04/24 05:30:13;;;;;;;16.52;7.07;;;7.30;99.90;;;;;;5001545;28;20100;-64
2021/04/24 05:32:39;;;;;;;21.27;7.80;;;7.50;99.90;;;;;;4998426;28;20022;-64
2021/04/24 05:35:05;;;;;;;13.65;6.57;;;7.80;99.90;;;;;;5001242;28;20057;-64
2021/04/24 05:37:31;;;;;;;12.23;5.90;;;8.30;99.90;;;;;;4994279;28;20038;-64
2021/04/24 05:39:57;;;;;;;13.27;6.20;;;8.80;99.90;;;;;;4993929;28;20029;-63
2021/04/24 05:42:22;;;;;;;11.15;6.35;;;9.30;98.20;;;;;;4998105;28;20038;-63
2021/04/24 05:44:48;;;;;;;16.52;7.63;;;9.50;97.90;;;;;;5001468;28;20022;-63
2021/04/24 05:47:13;;;;;;;20.48;8.77;;;9.80;96.80;;;;;;4995581;28;20433;-64
2021/04/24 05:49:39;;;;;;;13.95;6.63;;;9.90;96.60;;;;;;4999849;28;20140;-64
2021/04/24 05:52:05;;;;;;;14.63;7.55;;;10.10;95.50;;;;;;5000136;28;20396;-63
2021/04/24 05:54:31;;;;;;;11.82;6.28;;;10.40;95.40;;;;;;5004349;28;20044;-64
2021/04/24 05:56:57;;;;;;;14.30;5.43;;;11.10;94.00;;;;;;5001406;28;20022;-65
2021/04/24 05:59:22;;;;;;;13.82;5.82;;;11.60;92.20;;;;;;4992712;28;20038;-63
2021/04/24 06:01:48;;;;;;;12.25;6.18;;;11.80;92.20;;;;;;4999155;28;20018;-65
2021/04/24 06:04:14;;;;;;;10.82;5.95;;;11.60;92.30;;;;;;4999167;28;20038;-65
2021/04/24 06:06:39;;;;;;;12.00;5.97;;;11.50;92.30;;;;;;4995978;28;20491;-65
2021/04/24 06:09:06;;;;;;;12.48;6.30;;;11.40;93.00;;;;;;5002518;28;20022;-64
2021/04/24 06:11:33;;;;;;;14.07;6.07;;;11.40;92.30;;;;;;5002521;28;20053;-64
2021/04/24 06:13:58;;;;;;;13.40;6.10;;;11.30;92.90;;;;;;5001997;28;20026;-64
2021/04/24 06:16:24;;;;;;;12.90;5.60;;;11.50;92.10;;;;;;5001569;28;20041;-64
2021/04/24 06:18:50;;;;;;;9.00;5.60;;;12.20;90.60;;;;;;4992206;28;20061;-64
2021/04/24 06:21:15;;;;;;;9.05;5.30;;;12.40;90.40;;;;;;4999758;28;20571;-63
2021/04/24 06:23:41;;;;;;;11.45;5.57;;;13.00;90.00;;;;;;4996678;28;20097;-63
2021/04/24 06:26:07;;;;;;;11.50;5.53;;;13.90;83.70;;;;;;5002506;28;20048;-65
2021/04/24 06:28:32;;;;;;;13.85;7.05;;;14.60;75.80;;;;;;5007074;28;20036;-65
2021/04/24 06:30:58;;;;;;;13.77;4.88;;;14.40;74.30;;;;;;5002058;28;20491;-65
2021/04/24 06:33:23;;;;;;;9.80;5.68;;;14.50;73.40;;;;;;4999449;28;20034;-64
2021/04/24 06:35:49;;;;;;;9.55;4.72;;;14.50;71.30;;;;;;4999595;28;20037;-65
2021/04/24 06:38:14;;;;;;;7.43;4.25;;;13.90;71.70;;;;;;5002814;28;20037;-65
2021/04/24 06:40:40;;;;;;;9.75;4.72;;;13.50;73.00;;;;;;4996344;28;20034;-64
2021/04/24 06:43:06;;;;;;;9.95;4.85;;;13.30;72.00;;;;;;4994291;28;20030;-65
2021/04/24 06:45:31;;;;;;;10.63;4.95;;;12.90;73.50;;;;;;4997529;28;20419;-64
2021/04/24 06:47:57;;;;;;;9.13;5.10;;;12.70;74.00;;;;;;5002961;28;20029;-64
2021/04/24 06:50:23;;;;;;;13.40;4.70;;;12.80;76.60;;;;;;4998461;28;20412;-64
2021/04/24 06:52:49;;;;;;;9.70;5.07;;;12.70;75.00;;;;;;4995262;28;20067;-64
2021/04/24 06:55:18;;;;;;;8.77;4.55;;;12.50;75.50;;;;;;5000506;28;20049;-63
2021/04/24 06:57:47;;;;;;;9.95;4.88;;;13.00;74.30;;;;;;5003672;28;20038;-64
2021/04/24 07:00:14;;;;;;;9.50;3.95;;;12.90;75.50;;;;;;4976038;28;22140;-63
2021/04/24 07:02:41;;;;;;;8.73;4.43;;;12.80;75.00;;;;;;4981710;28;20038;-64
2021/04/24 07:05:08;;;;;;;10.98;5.70;;;13.10;74.50;;;;;;4998163;28;20085;-63
2021/04/24 07:07:34;;;;;;;8.80;4.43;;;13.00;71.60;;;;;;4991675;28;20169;-64
2021/04/24 07:10:00;;;;;;;9.38;4.90;;;13.40;75.00;;;;;;5003567;28;20018;-65
2021/04/24 07:12:26;;;;;;;14.45;5.00;;;13.60;72.70;;;;;;4987111;28;20667;-65
2021/04/24 07:14:51;;;;;;;18.35;6.63;;;13.90;69.90;;;;;;5002803;28;20042;-64
2021/04/24 07:17:17;;;;;;;7.13;4.53;;;13.70;71.70;;;;;;4995953;28;20114;-65
2021/04/24 07:19:43;;;;;;;11.43;4.90;;;14.00;72.80;;;;;;4994200;28;20057;-63
2021/04/24 07:22:08;;;;;;;11.68;4.78;;;14.30;70.90;;;;;;4999811;28;20032;-65
2021/04/24 07:24:34;;;;;;;11.23;5.63;;;14.30;70.70;;;;;;5002852;28;20026;-65
2021/04/24 07:26:59;;;;;;;8.10;5.03;;;14.50;67.70;;;;;;4998875;28;20035;-65
2021/04/24 07:29:25;;;;;;;16.92;5.30;;;14.90;68.10;;;;;;5002428;28;20084;-65
2021/04/24 07:31:51;;;;;;;9.27;4.40;;;15.70;66.80;;;;;;4996116;28;20038;-65
2021/04/24 07:34:16;;;;;;;7.60;4.40;;;16.30;62.20;;;;;;5004298;28;20089;-65
2021/04/24 07:36:42;;;;;;;8.05;5.07;;;17.30;60.50;;;;;;4996943;28;20034;-65
2021/04/24 07:39:08;;;;;;;8.38;4.03;;;17.90;57.20;;;;;;4990430;28;20030;-64
2021/04/24 07:41:33;;;;;;;7.82;3.97;;;17.70;54.40;;;;;;4995718;28;20038;-63
2021/04/24 07:44:00;;;;;;;6.68;4.00;;;18.10;54.90;;;;;;5001050;28;20032;-64
2021/04/24 07:46:25;;;;;;;4.97;3.60;;;18.50;54.10;;;;;;4992043;28;20061;-64
2021/04/24 07:48:51;;;;;;;6.72;2.90;;;18.90;51.00;;;;;;4999444;28;20023;-65
2021/04/24 07:51:17;;;;;;;8.35;3.97;;;18.60;50.00;;;;;;4998461;28;20030;-65
2021/04/24 07:53:42;;;;;;;6.97;3.70;;;18.90;49.40;;;;;;4980787;28;20026;-64
2021/04/24 07:56:08;;;;;;;4.47;3.05;;;18.50;49.00;;;;;;4990170;28;20029;-65
2021/04/24 07:58:34;;;;;;;6.07;3.42;;;17.80;49.60;;;;;;4989140;28;20030;-64
2021/04/24 08:01:01;;;;;;;6.53;3.45;;;17.30;50.50;;;;;;4981269;28;20034;-64
2021/04/24 08:03:26;;;;;;;9.75;3.05;;;16.50;51.40;;;;;;4997485;28;20045;-65
2021/04/24 08:05:52;;;;;;;7.20;3.22;;;16.90;52.80;;;;;;4998465;28;20043;-64
2021/04/24 08:08:17;;;;;;;5.47;2.85;;;17.10;51.00;;;;;;4993341;28;20053;-65
2021/04/24 08:10:43;;;;;;;9.15;3.30;;;17.60;50.10;;;;;;4998561;28;20022;-65
2021/04/24 08:13:09;;;;;;;6.68;2.58;;;18.00;48.20;;;;;;4996771;28;20134;-65
2021/04/24 08:15:34;;;;;;;5.65;3.13;;;18.00;49.20;;;;;;4996527;28;20022;-63
2021/04/24 08:18:01;;;;;;;6.28;2.88;;;18.10;50.90;;;;;;4990427;28;20045;-64
2021/04/24 08:20:26;;;;;;;5.78;3.10;;;18.20;48.60;;;;;;4990996;28;20041;-62
2021/04/24 08:22:52;;;;;;;5.25;2.72;;;18.30;47.70;;;;;;4990553;28;20042;-64
2021/04/24 08:25:18;;;;;;;6.82;3.28;;;18.20;47.30;;;;;;5003244;28;20034;-64
2021/04/24 08:27:44;;;;;;;5.90;2.78;;;17.50;48.70;;;;;;5000938;28;20042;-65
2021/04/24 08:30:13;;;;;;;4.53;3.15;;;17.30;49.20;;;;;;5001544;28;20037;-64
2021/04/24 08:32:39;;;;;;;5.53;2.75;;;17.90;48.10;;;;;;4999435;28;20038;-65
2021/04/24 08:35:06;;;;;;;5.30;2.83;;;17.60;47.60;;;;;;5007095;28;20030;-64
2021/04/24 08:37:32;;;;;;;6.10;2.22;;;18.20;48.90;;;;;;5000660;28;20034;-66
2021/04/24 08:40:00;;;;;;;4.68;2.92;;;19.20;47.00;;;;;;4997587;28;20177;-65
2021/04/24 08:42:26;;;;;;;3.75;1.90;;;19.70;44.20;;;;;;5005331;28;20046;-65
2021/04/24 08:44:52;;;;;;;6.15;3.33;;;20.20;43.40;;;;;;5005140;28;20061;-66
2021/04/24 08:47:22;;;;;;;5.35;2.78;;;19.80;42.50;;;;;;5007312;28;20454;-65
2021/04/24 08:49:51;;;;;;;8.13;3.10;;;18.60;44.30;;;;;;5001382;28;20030;-64
2021/04/24 08:52:23;;;;;;;6.05;3.05;;;18.50;45.40;;;;;;5007529;28;20014;-65
2021/04/24 08:54:49;;;;;;;7.10;3.30;;;19.00;44.30;;;;;;4994120;28;20061;-63
2021/04/24 08:57:15;;;;;;;9.88;4.32;;;18.70;45.30;;;;;;5007306;28;20076;-66
2021/04/24 08:59:41;;;;;;;3.55;2.70;;;18.30;44.40;;;;;;4997755;28;20038;-61
2021/04/24 09:02:07;;;;;;;6.22;3.40;;;18.60;44.60;;;;;;4977824;28;20585;-65
2021/04/24 09:04:35;;;;;;;5.20;3.30;;;18.70;45.10;;;;;;4995858;28;20065;-65
2021/04/24 09:07:00;;;;;;;5.00;3.28;;;18.10;44.80;;;;;;5001670;28;20011;-65
2021/04/24 09:09:27;;;;;;;6.07;4.18;;;18.00;46.00;;;;;;5008650;28;20495;-65
2021/04/24 09:12:01;;;;;;;7.20;3.55;;;18.70;45.10;;;;;;5003790;28;20038;-64
2021/04/24 09:14:27;;;;;;;;;;;19.10;44.50;;;;;;5007306;28;20029;-65
2021/04/24 09:16:53;;;;;;;5.38;3.83;;;18.90;44.70;;;;;;4997581;28;19948;-65
2021/04/24 09:19:36;;;;;;;5.72;3.47;;;18.70;44.80;;;;;;4998896;28;20607;-64
2021/04/24 09:22:22;;;;;;;6.25;3.80;;;18.00;46.00;;;;;;5003296;28;20105;-66
2021/04/24 09:24:53;;;;;;;5.85;3.63;;;18.00;48.80;;;;;;5007439;28;20025;-64
2021/04/24 09:27:39;;;;;;;4.88;3.10;;;19.00;46.70;;;;;;4999709;28;20387;-66
2021/04/24 09:30:16;;;;;;;6.88;4.18;;;18.60;45.10;;;;;;4996076;28;20041;-65
2021/04/24 09:32:42;;;;;;;10.18;3.88;;;19.20;44.80;;;;;;5001176;28;20080;-64
2021/04/24 09:35:08;;;;;;;8.75;3.75;;;19.30;44.60;;;;;;5006943;28;20030;-65
2021/04/24 09:37:34;;;;;;;10.70;3.88;;;19.20;44.90;;;;;;5000167;28;20049;-65
2021/04/24 09:39:59;;;;;;;5.15;3.88;;;18.70;46.10;;;;;;4997482;28;20480;-65
2021/04/24 09:42:36;;;;;;;5.90;3.63;;;18.60;45.80;;;;;;5003854;28;20041;-65
2021/04/24 09:45:08;;;;;;;6.05;4.05;;;18.80;46.40;;;;;;5004321;28;20051;-65
2021/04/24 09:47:42;;;;;;;7.97;4.18;;;18.30;45.70;;;;;;4999283;28;20550;-65
2021/04/24 09:50:20;;;;;;;8.48;4.45;;;18.00;45.40;;;;;;4992259;28;20109;-63
2021/04/24 09:52:46;;;;;;;9.13;4.47;;;17.80;47.00;;;;;;4997396;28;20022;-64
2021/04/24 09:55:33;;;;;;;7.32;4.43;;;17.60;48.80;;;;;;4995028;28;20072;-62
2021/04/24 09:57:59;;;;;;;8.18;4.13;;;17.90;46.50;;;;;;5003162;28;20030;-63
2021/04/24 10:00:28;;;;;;;11.02;5.10;;;18.00;46.80;;;;;;5000880;28;20048;-63
2021/04/24 10:02:54;;;;;;;9.55;4.63;;;17.90;46.90;;;;;;4984734;28;20100;-64
2021/04/24 10:05:21;;;;;;;8.43;3.88;;;16.90;47.50;;;;;;4991936;28;20447;-64
2021/04/24 10:07:51;;;;;;;8.38;4.53;;;16.40;49.80;;;;;;5000934;28;20064;-63
2021/04/24 10:10:39;;;;;;;10.93;5.32;;;15.90;51.70;;;;;;4999914;28;20031;-64
2021/04/24 10:13:08;;;;;;;7.18;4.22;;;15.60;52.80;;;;;;5002411;28;20022;-62
2021/04/24 10:15:40;;;;;;;7.88;4.22;;;15.50;53.00;;;;;;5000041;28;20054;-63
2021/04/24 10:18:07;;;;;;;9.32;4.55;;;15.50;51.00;;;;;;4997232;28;20038;-63
2021/04/24 10:20:34;;;;;;;9.02;5.13;;;15.70;51.90;;;;;;5002687;28;20034;-63
2021/04/24 10:23:02;;;;;;;11.38;4.47;;;15.80;52.60;;;;;;4999649;28;20036;-63
2021/04/24 10:25:29;;;;;;;8.02;4.43;;;15.70;52.50;;;;;;5004042;28;20112;-62
2021/04/24 10:27:56;;;;;;;9.88;4.55;;;15.50;51.90;;;;;;4996052;28;20026;-60
2021/04/24 10:30:22;;;;;;;10.13;4.70;;;15.20;52.70;;;;;;4995843;28;20541;-63
2021/04/24 10:32:47;;;;;;;8.77;4.40;;;15.00;52.30;;;;;;4987808;28;20030;-63
2021/04/24 10:35:15;;;;;;;6.28;3.88;;;15.20;51.70;;;;;;4991733;28;20399;-63
2021/04/24 10:37:45;;;;;;;8.60;3.95;;;15.30;52.50;;;;;;4990906;28;20026;-58
2021/04/24 10:40:11;;;;;;;6.95;3.35;;;15.40;51.40;;;;;;4988365;28;20033;-64
2021/04/24 10:42:37;;;;;;;5.57;4.00;;;15.30;52.00;;;;;;4984863;28;20061;-64
2021/04/24 10:45:06;;;;;;;7.18;4.10;;;15.30;53.00;;;;;;4988262;28;20495;-64
2021/04/24 10:47:38;;;;;;;8.70;4.90;;;15.30;53.10;;;;;;4996806;28;20034;-64
2021/04/24 10:50:06;;;;;;;10.13;4.40;;;15.30;53.80;;;;;;4986941;28;20467;-62
2021/04/24 10:52:32;;;;;;;8.07;4.20;;;15.00;53.60;;;;;;4986473;28;20033;-64
2021/04/24 10:55:16;;;;;;;5.88;3.08;;;14.80;54.20;;;;;;4977400;28;20041;-62
2021/04/24 10:57:59;;;;;;;7.05;3.72;;;15.00;48.60;;;;;;4982745;28;20038;-62
2021/04/24 11:00:32;;;;;;;4.75;3.15;;;15.10;51.60;;;;;;4989329;28;20033;-63
2021/04/24 11:02:59;;;;;;;;;;;14.90;51.50;;;;;;4972743;28;20149;-64
2021/04/24 11:05:27;;;;;;;6.03;3.30;;;15.10;50.20;;;;;;4989170;28;19914;-63
2021/04/24 11:08:08;;;;;;;6.35;3.38;;;15.20;50.50;;;;;;4983314;28;20022;-64
2021/04/24 11:10:44;;;;;;;6.63;3.88;;;15.10;51.30;;;;;;4974759;28;20027;-64
2021/04/24 11:13:17;;;;;;;7.80;3.38;;;15.00;52.30;;;;;;4977533;28;20611;-64
2021/04/24 11:15:44;;;;;;;7.28;3.53;;;15.20;52.60;;;;;;4979831;28;20038;-62
2021/04/24 11:18:11;;;;;;;11.23;3.47;;;15.10;51.90;;;;;;4986607;28;20026;-64
2021/04/24 11:20:57;;;;;;;7.78;4.07;;;15.20;50.90;;;;;;4986248;28;20077;-65
2021/04/24 11:23:49;;;;;;;9.07;3.83;;;15.20;53.10;;;;;;4989898;28;20038;-63
2021/04/24 11:26:21;;;;;;;6.78;3.13;;;15.10;51.80;;;;;;5000536;28;20369;-63
2021/04/24 11:29:07;;;;;;;5.78;3.67;;;15.10;52.30;;;;;;4993549;28;20109;-63
2021/04/24 11:31:56;;;;;;;6.13;3.80;;;14.80;51.80;;;;;;5006436;28;20022;-63
2021/04/24 11:34:28;;;;;;;6.63;3.50;;;14.60;52.00;;;;;;4993757;28;20087;-63
2021/04/24 11:37:18;;;;;;;6.53;3.50;;;14.70;53.20;;;;;;4991271;28;20026;-62
2021/04/24 11:40:02;;;;;;;10.27;3.55;;;14.40;54.20;;;;;;4990296;28;20388;-63
2021/04/24 11:42:29;;;;;;;;;;;14.40;54.00;;;;;;4991391;28;20034;-65
2021/04/24 11:44:54;;;;;;;5.72;4.07;;;14.50;54.30;;;;;;4992180;28;20020;-64
2021/04/24 11:47:38;;;;;;;6.28;3.50;;;14.50;53.50;;;;;;4984583;28;20170;-63
2021/04/24 11:50:04;;;;;;;;;;;14.50;53.40;;;;;;4981672;28;20023;-64
2021/04/24 11:52:30;;;;;;;10.30;3.38;;;14.50;54.60;;;;;;4986811;28;19909;-62
2021/04/24 11:54:56;;;;;;;6.22;3.75;;;14.80;53.00;;;;;;4997532;28;20049;-63
2021/04/24 11:57:22;;;;;;;7.45;4.18;;;14.50;52.80;;;;;;4996006;28;20392;-63
2021/04/24 11:59:49;;;;;;;8.63;3.83;;;14.50;53.70;;;;;;4989414;28;20026;-63
2021/04/24 12:02:22;;;;;;;6.30;3.47;;;14.30;55.00;;;;;;4976930;28;20120;-64
2021/04/24 12:04:52;;;;;;;8.02;3.72;;;14.30;55.50;;;;;;5001729;28;20391;-64
2021/04/24 12:07:18;;;;;;;6.50;4.00;;;14.40;55.40;;;;;;4988790;28;20218;-62
2021/04/24 12:09:55;;;;;;;7.53;4.03;;;14.40;57.30;;;;;;4995742;28;20159;-64
2021/04/24 12:12:42;;;;;;;8.32;3.75;;;14.50;53.60;;;;;;4992187;28;20026;-63
2021/04/24 12:15:19;;;;;;;6.47;3.70;;;14.80;54.80;;;;;;4988188;28;20053;-64
2021/04/24 12:18:04;;;;;;;4.75;2.67;;;14.90;53.40;;;;;;4986234;28;20053;-64
2021/04/24 12:20:33;;;;;;;6.43;3.58;;;14.80;52.20;;;;;;4988035;28;20030;-64
2021/04/24 12:23:01;;;;;;;9.35;3.53;;;14.70;51.70;;;;;;4990961;28;20376;-62
2021/04/24 12:25:29;;;;;;;5.82;3.75;;;14.70;53.30;;;;;;4994091;28;20399;-65
2021/04/24 12:27:56;;;;;;;6.53;3.35;;;14.70;53.90;;;;;;4996403;28;20030;-65
2021/04/24 12:30:25;;;;;;;6.10;3.53;;;14.70;54.00;;;;;;4994915;28;20114;-65
2021/04/24 12:32:53;;;;;;;8.73;3.58;;;14.80;54.60;;;;;;4981226;28;20488;-64
2021/04/24 12:35:27;;;;;;;8.60;3.45;;;14.70;54.30;;;;;;4989185;28;20034;-65
2021/04/24 12:38:11;;;;;;;6.78;3.90;;;14.60;54.50;;;;;;4988260;28;20038;-65
2021/04/24 12:40:43;;;;;;;14.20;3.85;;;14.70;55.00;;;;;;4994507;28;20034;-65
2021/04/24 12:43:12;;;;;;;7.68;3.53;;;14.90;55.70;;;;;;4992879;28;20566;-65
2021/04/24 12:45:42;;;;;;;9.57;3.80;;;15.00;54.80;;;;;;4999852;28;20444;-65
2021/04/24 12:48:20;;;;;;;9.55;4.40;;;14.90;53.90;;;;;;4986620;28;20026;-65
2021/04/24 12:50:49;;;;;;;9.55;4.07;;;14.80;56.00;;;;;;5003748;28;20044;-64